createdAt,value
2022-09-14T00:00:08.504Z,0.40
2022-09-14T00:02:34.992Z,0.93
2022-09-14T00:05:01.340Z,0.40
2022-09-14T00:07:27.639Z,0.47
2022-09-14T00:09:53.974Z,0.20
2022-09-14T00:12:20.290Z,0.10
2022-09-14T00:14:46.647Z,0.10
2022-09-14T00:17:13.070Z,0.10
2022-09-14T00:19:39.348Z,0.30
2022-09-14T00:22:06.721Z,0.30
2022-09-14T00:24:35.048Z,0.20
2022-09-14T00:27:02.597Z,0.40
2022-09-14T00:29:30.011Z,0.77
2022-09-14T00:31:56.445Z,0.85
2022-09-14T00:34:22.946Z,1.00
2022-09-14T00:36:50.036Z,0.82
2022-09-14T00:39:17.484Z,1.10
2022-09-14T00:41:45.131Z,1.13
2022-09-14T00:44:11.518Z,0.98
2022-09-14T00:46:37.912Z,2.72
2022-09-14T00:49:06.697Z,3.13
2022-09-14T00:51:33.534Z,2.13
2022-09-14T00:54:03.773Z,1.10
2022-09-14T00:56:30.636Z,1.50
2022-09-14T00:58:58.648Z,2.22
2022-09-14T01:01:25.624Z,2.53
2022-09-14T01:03:52.267Z,2.10
2022-09-14T01:06:37.041Z,2.17
2022-09-14T01:09:22.110Z,2.08
2022-09-14T01:11:54.444Z,1.40
2022-09-14T01:14:23.751Z,1.50
2022-09-14T01:17:04.239Z,1.20
2022-09-14T01:19:49.060Z,1.80
2022-09-14T01:22:21.154Z,1.58
2022-09-14T01:24:55.867Z,1.40
2022-09-14T01:27:27.966Z,1.02
2022-09-14T01:30:08.208Z,0.70
2022-09-14T01:32:55.086Z,0.40
2022-09-14T01:35:45.966Z,0.30
2022-09-14T01:38:21.862Z,0.40
2022-09-14T01:40:49.340Z,0.20
2022-09-14T01:43:37.001Z,0.47
2022-09-14T01:46:08.207Z,0.40
2022-09-14T01:48:37.186Z,0.63
2022-09-14T01:51:05.667Z,0.32
2022-09-14T01:53:47.086Z,0.22
2022-09-14T01:56:24.801Z,0.50
2022-09-14T01:58:54.101Z,1.10
2022-09-14T02:01:22.701Z,1.52
2022-09-14T02:03:53.457Z,1.50
2022-09-14T02:06:24.951Z,1.20
2022-09-14T02:08:51.892Z,0.98
2022-09-14T02:11:18.244Z,0.70
2022-09-14T02:13:44.671Z,0.57
2022-09-14T02:16:11.036Z,0.50
2022-09-14T02:18:38.364Z,0.40
2022-09-14T02:21:11.326Z,0.30
2022-09-14T02:23:37.676Z,0.30
2022-09-14T02:26:04.701Z,0.30
2022-09-14T02:28:31.106Z,0.17
2022-09-14T02:31:03.236Z,0.20
2022-09-14T02:33:29.558Z,0.17
2022-09-14T02:36:00.174Z,0.20
2022-09-14T02:38:33.969Z,0.10
2022-09-14T02:41:07.434Z,0.20
2022-09-14T02:43:49.205Z,0.20
2022-09-14T02:46:18.547Z,0.17
2022-09-14T02:48:50.960Z,0.20
2022-09-14T02:51:17.248Z,0.10
2022-09-14T02:53:50.122Z,0.47
2022-09-14T02:56:16.820Z,0.85
2022-09-14T02:58:44.243Z,1.33
2022-09-14T03:01:14.870Z,1.30
2022-09-14T03:03:41.252Z,0.70
2022-09-14T03:06:07.696Z,0.68
2022-09-14T03:08:34.349Z,0.52
2022-09-14T03:11:01.033Z,0.60
2022-09-14T03:13:27.338Z,0.65
2022-09-14T03:15:53.805Z,0.28
2022-09-14T03:18:20.538Z,0.30
2022-09-14T03:20:46.907Z,0.20
2022-09-14T03:23:13.777Z,0.20
2022-09-14T03:25:41.698Z,0.20
2022-09-14T03:28:08.353Z,0.70
2022-09-14T03:30:35.050Z,1.40
2022-09-14T03:33:01.512Z,0.70
2022-09-14T03:35:28.644Z,0.82
2022-09-14T03:37:55.072Z,0.50
2022-09-14T03:40:22.229Z,0.50
2022-09-14T03:42:49.657Z,0.30
2022-09-14T03:45:16.570Z,0.40
2022-09-14T03:47:43.360Z,0.20
2022-09-14T03:50:10.416Z,0.30
2022-09-14T03:52:37.496Z,0.22
2022-09-14T03:55:04.509Z,0.30
2022-09-14T03:57:30.816Z,0.60
2022-09-14T03:59:57.357Z,0.40
2022-09-14T04:02:23.762Z,0.30
2022-09-14T04:04:50.125Z,0.10
2022-09-14T04:07:16.904Z,0.17
2022-09-14T04:09:44.116Z,0.10
2022-09-14T04:12:10.500Z,0.10
2022-09-14T04:14:36.944Z,0.20
2022-09-14T04:17:03.657Z,0.10
2022-09-14T04:19:29.953Z,0.10
2022-09-14T04:21:56.406Z,0.10
2022-09-14T04:24:25.367Z,0.10
2022-09-14T04:26:55.747Z,0.10
2022-09-14T04:29:22.239Z,0.10
2022-09-14T04:31:48.587Z,0.20
2022-09-14T04:34:14.911Z,0.20
2022-09-14T04:36:41.610Z,0.20
2022-09-14T04:39:10.395Z,0.20
2022-09-14T04:41:36.778Z,0.20
2022-09-14T04:44:03.212Z,0.20
2022-09-14T04:46:30.903Z,0.10
2022-09-14T04:48:57.520Z,0.10
2022-09-14T04:51:25.426Z,0.10
2022-09-14T04:53:52.781Z,0.15
2022-09-14T04:56:20.209Z,0.17
2022-09-14T04:58:51.660Z,0.20
2022-09-14T05:01:19.869Z,0.10
2022-09-14T05:03:46.436Z,0.10
2022-09-14T05:06:17.268Z,0.10
2022-09-14T05:08:43.798Z,0.10
2022-09-14T05:11:12.365Z,0.10
2022-09-14T05:13:38.782Z,0.15
2022-09-14T05:16:09.044Z,0.10
2022-09-14T05:18:35.625Z,0.10
2022-09-14T05:21:08.423Z,0.15
2022-09-14T05:23:35.294Z,0.08
2022-09-14T05:26:01.705Z,0.10
2022-09-14T05:28:28.190Z,0.13
2022-09-14T05:30:54.564Z,0.10
2022-09-14T05:33:21.638Z,0.10
2022-09-14T05:35:48.537Z,0.08
2022-09-14T05:38:15.253Z,0.00
2022-09-14T05:40:41.898Z,0.10
2022-09-14T05:43:08.321Z,0.05
2022-09-14T05:45:34.921Z,0.10
2022-09-14T05:48:02.246Z,0.20
2022-09-14T05:50:28.614Z,0.22
2022-09-14T05:52:54.960Z,0.10
2022-09-14T05:55:21.264Z,0.20
2022-09-14T05:57:51.043Z,0.10
2022-09-14T06:00:17.798Z,0.20
2022-09-14T06:02:48.029Z,0.30
2022-09-14T06:05:14.590Z,0.30
2022-09-14T06:07:41.306Z,0.38
2022-09-14T06:10:08.184Z,0.20
2022-09-14T06:12:34.582Z,0.20
2022-09-14T06:15:00.878Z,0.20
2022-09-14T06:17:29.287Z,0.17
2022-09-14T06:19:55.604Z,0.10
2022-09-14T06:22:21.915Z,0.20
2022-09-14T06:24:48.229Z,0.30
2022-09-14T06:27:15.410Z,0.28
2022-09-14T06:29:41.741Z,0.10
2022-09-14T06:32:08.020Z,0.20
2022-09-14T06:34:34.354Z,0.20
2022-09-14T06:37:01.036Z,0.13
2022-09-14T06:39:27.374Z,0.20
2022-09-14T06:41:53.700Z,0.20
2022-09-14T06:44:20.031Z,0.20
2022-09-14T06:46:47.745Z,0.40
2022-09-14T06:49:20.574Z,0.30
2022-09-14T06:51:47.421Z,0.20
2022-09-14T06:54:15.284Z,0.40
2022-09-14T06:56:42.475Z,0.35
2022-09-14T06:59:09.826Z,0.20
2022-09-14T07:01:36.444Z,0.38
2022-09-14T07:04:03.372Z,0.40
2022-09-14T07:06:31.213Z,0.30
2022-09-14T07:08:57.815Z,0.30
2022-09-14T07:11:29.669Z,0.40
2022-09-14T07:16:25.971Z,0.30
2022-09-14T07:18:53.320Z,0.40
2022-09-14T07:21:21.191Z,0.60
2022-09-14T07:23:48.175Z,0.40
2022-09-14T07:26:41.872Z,0.50
2022-09-14T07:29:10.760Z,0.43
2022-09-14T07:31:41.892Z,0.20
2022-09-14T07:34:08.431Z,0.40
2022-09-14T07:36:35.516Z,0.15
2022-09-14T07:39:02.666Z,0.50
2022-09-14T07:41:30.370Z,0.40
2022-09-14T07:44:00.382Z,0.50
2022-09-14T07:46:33.280Z,0.30
2022-09-14T07:49:00.885Z,0.28
2022-09-14T07:51:27.977Z,0.55
2022-09-14T07:53:54.634Z,0.20
2022-09-14T07:56:21.770Z,0.10
2022-09-14T07:58:51.540Z,0.10
2022-09-14T08:01:21.946Z,0.20
2022-09-14T08:03:48.930Z,0.30
2022-09-14T08:06:17.291Z,0.60
2022-09-14T08:08:44.940Z,0.90
2022-09-14T08:11:21.926Z,0.80
2022-09-14T08:13:52.936Z,0.80
2022-09-14T08:16:19.682Z,1.10
2022-09-14T08:18:46.685Z,1.30
2022-09-14T08:21:14.456Z,1.08
2022-09-14T08:23:41.235Z,0.90
2022-09-14T08:26:09.124Z,0.90
2022-09-14T08:28:36.428Z,0.90
2022-09-14T08:31:06.752Z,0.70
2022-09-14T08:33:33.808Z,0.90
2022-09-14T08:36:00.636Z,1.00
2022-09-14T08:38:27.100Z,1.20
2022-09-14T08:40:53.467Z,0.70
2022-09-14T08:43:20.921Z,0.95
2022-09-14T08:45:47.825Z,0.88
2022-09-14T08:48:37.521Z,0.65
2022-09-14T08:51:05.270Z,1.10
2022-09-14T08:53:33.027Z,0.73
2022-09-14T08:56:18.309Z,0.90
2022-09-14T08:58:50.993Z,0.65
2022-09-14T09:01:26.262Z,0.57
2022-09-14T09:04:04.926Z,0.45
2022-09-14T09:06:40.458Z,0.50
2022-09-14T09:09:23.346Z,0.70
2022-09-14T09:11:51.272Z,0.70
2022-09-14T09:14:31.195Z,0.80
2022-09-14T09:16:59.361Z,0.50
2022-09-14T09:19:30.934Z,0.68
2022-09-14T09:21:57.932Z,0.80
2022-09-14T09:24:27.652Z,0.75
2022-09-14T09:26:55.145Z,0.90
2022-09-14T09:29:21.656Z,1.27
2022-09-14T09:31:52.630Z,1.00
2022-09-14T09:34:24.998Z,1.40
2022-09-14T09:36:51.400Z,0.95
2022-09-14T09:39:18.004Z,0.82
2022-09-14T09:41:50.337Z,1.20
2022-09-14T09:44:16.672Z,1.08
2022-09-14T09:46:45.820Z,0.90
2022-09-14T09:49:20.324Z,0.90
2022-09-14T09:51:46.746Z,0.90
2022-09-14T09:54:13.014Z,1.50
2022-09-14T09:56:41.057Z,1.08
2022-09-14T09:59:21.886Z,1.73
2022-09-14T10:01:48.323Z,1.23
2022-09-14T10:04:22.357Z,0.80
2022-09-14T10:06:50.373Z,1.20
2022-09-14T10:09:26.996Z,1.40
2022-09-14T10:12:03.964Z,1.00
2022-09-14T10:14:32.072Z,0.57
2022-09-14T10:17:15.999Z,0.60
2022-09-14T10:19:46.636Z,1.45
2022-09-14T10:22:20.838Z,1.83
2022-09-14T10:24:54.215Z,1.80
2022-09-14T10:27:48.487Z,1.90
2022-09-14T10:30:25.380Z,2.30
2022-09-14T10:32:57.809Z,2.65
2022-09-14T10:35:28.006Z,2.80
2022-09-14T10:38:00.164Z,2.35
2022-09-14T10:40:31.729Z,2.25
2022-09-14T10:43:03.683Z,2.08
2022-09-14T10:45:41.204Z,2.55
2022-09-14T10:48:13.438Z,2.80
2022-09-14T10:50:52.817Z,2.22
2022-09-14T10:53:19.873Z,4.07
2022-09-14T10:55:49.042Z,3.30
2022-09-14T10:58:33.717Z,2.40
2022-09-14T11:01:00.033Z,2.30
2022-09-14T11:03:41.758Z,1.40
2022-09-14T11:06:15.922Z,1.80
2022-09-14T11:08:46.398Z,1.27
2022-09-14T11:11:18.467Z,1.20
2022-09-14T11:13:53.521Z,0.88
2022-09-14T11:16:28.298Z,0.70
2022-09-14T11:19:12.838Z,0.80
2022-09-14T11:21:45.318Z,0.73
2022-09-14T11:24:19.548Z,0.68
2022-09-14T11:26:50.960Z,0.45
2022-09-14T11:29:29.071Z,0.60
2022-09-14T11:32:19.342Z,1.25
2022-09-14T11:34:48.497Z,0.80
2022-09-14T11:37:16.957Z,1.30
2022-09-14T11:39:48.619Z,2.90
2022-09-14T11:44:42.284Z,2.47
2022-09-14T11:47:12.894Z,2.60
2022-09-14T11:49:55.320Z,2.60
2022-09-14T11:52:23.339Z,1.60
2022-09-14T11:54:50.209Z,1.40
2022-09-14T11:57:25.422Z,1.80
2022-09-14T11:59:53.204Z,1.83
2022-09-14T12:02:22.384Z,1.42
2022-09-14T12:05:10.624Z,1.27
2022-09-14T12:07:39.839Z,1.60
2022-09-14T12:10:15.481Z,1.00
2022-09-14T12:12:43.069Z,0.88
2022-09-14T12:15:15.310Z,1.10
2022-09-14T12:17:42.103Z,1.58
2022-09-14T12:20:34.694Z,1.65
2022-09-14T12:23:24.138Z,1.33
2022-09-14T12:25:53.283Z,1.52
2022-09-14T12:28:27.642Z,1.50
2022-09-14T12:30:53.977Z,1.45
2022-09-14T12:33:32.428Z,1.38
2022-09-14T12:35:58.699Z,0.95
2022-09-14T12:38:30.802Z,1.10
2022-09-14T12:40:58.070Z,0.70
2022-09-14T12:43:30.144Z,0.60
2022-09-14T12:46:00.756Z,0.80
2022-09-14T12:48:45.667Z,0.60
2022-09-14T12:51:36.093Z,0.40
2022-09-14T12:54:08.403Z,0.25
2022-09-14T12:56:43.589Z,0.20
2022-09-14T12:59:13.091Z,0.35
2022-09-14T13:01:45.268Z,0.20
2022-09-14T13:04:13.511Z,0.40
2022-09-14T13:06:42.692Z,0.30
2022-09-14T13:09:22.832Z,1.30
2022-09-14T13:11:53.500Z,1.10
2022-09-14T13:14:19.959Z,0.90
2022-09-14T13:16:47.932Z,0.68
2022-09-14T13:19:21.991Z,0.40
2022-09-14T13:21:49.951Z,0.30
2022-09-14T13:24:23.385Z,0.40
2022-09-14T13:26:49.985Z,0.30
2022-09-14T13:29:16.460Z,0.20
2022-09-14T13:31:44.807Z,0.30
2022-09-14T13:34:23.077Z,0.32
2022-09-14T13:36:49.510Z,0.22
2022-09-14T13:39:28.252Z,0.30
2022-09-14T13:41:55.173Z,0.30
2022-09-14T13:44:49.694Z,0.30
2022-09-14T13:47:19.624Z,0.47
2022-09-14T13:49:46.784Z,0.40
2022-09-14T13:52:19.237Z,0.28
2022-09-14T13:54:47.241Z,0.20
2022-09-14T13:57:17.845Z,0.10
2022-09-14T14:00:02.710Z,0.40
2022-09-14T14:02:31.853Z,0.30
2022-09-14T14:04:58.333Z,0.40
2022-09-14T14:07:31.098Z,0.63
2022-09-14T14:09:58.182Z,0.90
2022-09-14T14:12:26.321Z,0.60
2022-09-14T14:14:53.814Z,0.70
2022-09-14T14:17:23.310Z,0.73
2022-09-14T14:19:50.969Z,0.60
2022-09-14T14:22:18.208Z,0.50
2022-09-14T14:25:11.829Z,0.20
2022-09-14T14:27:33.231Z,0.30
2022-09-14T14:30:01.433Z,0.40
2022-09-14T14:32:28.340Z,0.40
2022-09-14T14:34:55.404Z,0.40
2022-09-14T14:37:21.910Z,0.20
2022-09-14T14:39:49.794Z,0.20
2022-09-14T14:42:16.557Z,0.20
2022-09-14T14:44:43.889Z,0.45
2022-09-14T14:47:11.915Z,0.20
2022-09-14T14:49:38.424Z,0.20
2022-09-14T14:52:04.747Z,0.40
2022-09-14T14:54:31.655Z,0.30
2022-09-14T14:56:58.074Z,0.20
2022-09-14T14:59:26.441Z,0.32
2022-09-14T15:01:53.825Z,0.20
2022-09-14T15:04:20.325Z,0.20
2022-09-14T15:06:47.492Z,0.35
2022-09-14T15:09:14.718Z,0.20
2022-09-14T15:11:41.150Z,0.30
2022-09-14T15:14:17.482Z,0.10
2022-09-14T15:16:44.507Z,0.10
2022-09-14T15:19:11.322Z,0.10
2022-09-14T15:21:38.356Z,0.10
2022-09-14T15:24:04.966Z,0.10
2022-09-14T15:26:31.246Z,0.17
2022-09-14T15:28:57.520Z,0.20
2022-09-14T15:31:23.889Z,0.30
2022-09-14T15:33:50.192Z,0.20
2022-09-14T15:36:35.141Z,0.10
2022-09-14T15:39:01.428Z,0.50
2022-09-14T15:41:27.706Z,0.40
2022-09-14T15:43:54.033Z,0.30
2022-09-14T15:46:20.781Z,0.30
2022-09-14T15:48:47.062Z,0.30
2022-09-14T15:51:13.502Z,0.20
2022-09-14T15:53:39.977Z,0.20
2022-09-14T15:56:10.775Z,0.20
2022-09-14T15:58:37.180Z,0.30
2022-09-14T16:01:14.190Z,0.30
2022-09-14T16:03:42.691Z,0.38
2022-09-14T16:06:12.627Z,0.65
2022-09-14T16:08:39.730Z,0.60
2022-09-14T16:11:06.886Z,0.45
2022-09-14T16:13:34.009Z,0.20
2022-09-14T16:16:04.363Z,0.30
2022-09-14T16:18:30.905Z,0.20
2022-09-14T16:21:02.652Z,0.20
2022-09-14T16:23:28.941Z,0.50
2022-09-14T16:25:55.248Z,0.60
2022-09-14T16:28:21.524Z,0.80
2022-09-14T16:30:48.116Z,0.55
2022-09-14T16:33:14.436Z,0.85
2022-09-14T16:35:40.712Z,0.60
2022-09-14T16:38:07.074Z,0.50
2022-09-14T16:40:34.127Z,0.32
2022-09-14T16:43:00.824Z,0.50
2022-09-14T16:45:27.251Z,0.50
2022-09-14T16:47:53.685Z,0.40
2022-09-14T16:50:20.305Z,0.32
2022-09-14T16:52:46.596Z,0.30
2022-09-14T16:55:12.929Z,0.28
2022-09-14T16:57:39.207Z,0.30
2022-09-14T17:00:05.749Z,0.38
2022-09-14T17:02:32.183Z,0.40
2022-09-14T17:04:58.508Z,0.75
2022-09-14T17:07:25.726Z,0.57
2022-09-14T17:09:52.137Z,0.60
2022-09-14T17:12:18.438Z,0.50
2022-09-14T17:14:44.731Z,0.70
2022-09-14T17:17:11.042Z,0.50
2022-09-14T17:19:41.640Z,0.57
2022-09-14T17:22:10.758Z,0.50
2022-09-14T17:24:37.171Z,0.40
2022-09-14T17:27:03.525Z,0.43
2022-09-14T17:29:31.287Z,0.30
2022-09-14T17:31:58.210Z,0.50
2022-09-14T17:34:24.552Z,0.40
2022-09-14T17:36:50.812Z,0.50
2022-09-14T17:39:17.288Z,0.43
2022-09-14T17:41:43.931Z,0.40
2022-09-14T17:44:11.367Z,0.45
2022-09-14T17:46:46.024Z,0.50
2022-09-14T17:49:17.575Z,0.30
2022-09-14T17:51:45.292Z,0.40
2022-09-14T17:54:12.642Z,0.40
2022-09-14T17:56:38.903Z,0.40
2022-09-14T17:59:06.707Z,0.60
2022-09-14T18:01:33.540Z,0.50
2022-09-14T18:04:01.585Z,0.50
2022-09-14T18:06:29.842Z,0.50
2022-09-14T18:09:00.310Z,0.43
2022-09-14T18:11:26.979Z,0.30
2022-09-14T18:13:53.423Z,0.60
2022-09-14T18:16:20.786Z,0.98
2022-09-14T18:18:47.554Z,0.88
2022-09-14T18:21:14.908Z,0.70
2022-09-14T18:23:41.184Z,0.35
2022-09-14T18:26:07.863Z,0.60
2022-09-14T18:28:35.251Z,0.88
2022-09-14T18:31:05.894Z,0.60
2022-09-14T18:33:32.318Z,0.63
2022-09-14T18:35:58.691Z,0.73
2022-09-14T18:38:25.328Z,0.35
2022-09-14T18:40:51.688Z,0.40
2022-09-14T18:43:18.266Z,0.40
2022-09-14T18:45:44.876Z,0.35
2022-09-14T18:48:11.529Z,0.30
2022-09-14T18:50:38.720Z,0.25
2022-09-14T18:53:05.032Z,0.40
2022-09-14T18:55:31.748Z,0.30
2022-09-14T18:57:58.145Z,0.38
2022-09-14T19:00:24.445Z,0.30
2022-09-14T19:02:52.569Z,0.40
2022-09-14T19:05:19.042Z,0.60
2022-09-14T19:07:45.544Z,0.40
2022-09-14T19:10:12.023Z,0.70
2022-09-14T19:12:38.467Z,0.40
2022-09-14T19:15:05.145Z,0.50
2022-09-14T19:17:31.450Z,0.30
2022-09-14T19:19:58.174Z,0.50
2022-09-14T19:22:24.885Z,0.30
2022-09-14T19:24:51.417Z,0.43
2022-09-14T19:27:17.815Z,0.40
2022-09-14T19:29:44.093Z,0.60
2022-09-14T19:32:10.372Z,0.50
2022-09-14T19:34:38.282Z,0.68
2022-09-14T19:37:04.686Z,0.80
2022-09-14T19:39:30.960Z,0.80
2022-09-14T19:41:57.394Z,0.80
2022-09-14T19:44:23.706Z,0.50
2022-09-14T19:46:50.156Z,1.00
2022-09-14T19:49:18.348Z,0.50
2022-09-14T19:51:45.478Z,0.40
2022-09-14T19:54:12.175Z,0.52
2022-09-14T19:56:39.704Z,0.52
2022-09-14T19:59:07.252Z,0.45
2022-09-14T20:01:35.017Z,0.40
2022-09-14T20:04:01.883Z,0.68
2022-09-14T20:06:31.531Z,0.40
2022-09-14T20:09:01.153Z,0.40
2022-09-14T20:11:28.440Z,0.30
2022-09-14T20:13:55.602Z,0.22
2022-09-14T20:16:23.611Z,0.30
2022-09-14T20:18:50.602Z,0.28
2022-09-14T20:21:21.128Z,0.50
2022-09-14T20:24:11.469Z,0.50
2022-09-14T20:26:34.094Z,0.88
2022-09-14T20:29:01.207Z,0.68
2022-09-14T20:31:28.522Z,0.90
2022-09-14T20:33:55.483Z,0.80
2022-09-14T20:36:22.280Z,0.52
2022-09-14T20:38:51.471Z,1.00
2022-09-14T20:41:18.312Z,0.70
2022-09-14T20:43:49.026Z,0.80
2022-09-14T20:46:35.530Z,0.80
2022-09-14T20:49:02.536Z,0.45
2022-09-14T20:51:28.999Z,0.80
2022-09-14T20:53:58.433Z,0.70
2022-09-14T20:56:28.744Z,0.70
2022-09-14T20:58:56.008Z,0.60
2022-09-14T21:01:23.556Z,0.63
2022-09-14T21:03:50.482Z,0.60
2022-09-14T21:06:18.853Z,0.80
2022-09-14T21:08:45.697Z,0.73
2022-09-14T21:11:16.714Z,0.60
2022-09-14T21:13:43.622Z,0.80
2022-09-14T21:16:12.998Z,1.05
2022-09-14T21:18:39.475Z,0.90
2022-09-14T21:21:09.760Z,0.80
2022-09-14T21:23:36.233Z,0.70
2022-09-14T21:26:03.255Z,0.60
2022-09-14T21:28:29.645Z,1.10
2022-09-14T21:31:06.333Z,0.65
2022-09-14T21:33:33.670Z,1.35
2022-09-14T21:36:04.358Z,0.95
2022-09-14T21:38:31.343Z,0.77
2022-09-14T21:40:57.623Z,0.70
2022-09-14T21:43:23.974Z,0.70
2022-09-14T21:45:50.335Z,0.90
2022-09-14T21:48:17.260Z,0.77
2022-09-14T21:50:47.279Z,1.10
2022-09-14T21:53:13.991Z,0.98
2022-09-14T21:55:40.715Z,0.93
2022-09-14T21:58:07.168Z,0.70
2022-09-14T22:00:33.774Z,0.40
2022-09-14T22:03:00.137Z,0.50
2022-09-14T22:05:26.460Z,0.85
2022-09-14T22:07:52.820Z,0.50
2022-09-14T22:10:19.663Z,0.35
2022-09-14T22:12:47.767Z,0.30
2022-09-14T22:15:15.955Z,0.30
2022-09-14T22:17:42.306Z,0.40
2022-09-14T22:20:08.608Z,1.20
2022-09-14T22:22:35.035Z,0.57
2022-09-14T22:25:01.305Z,0.50
2022-09-14T22:27:27.584Z,0.73
2022-09-14T22:29:53.970Z,0.70
2022-09-14T22:32:21.627Z,0.38
2022-09-14T22:34:50.392Z,0.50
2022-09-14T22:37:16.727Z,0.35
2022-09-14T22:39:43.006Z,0.50
2022-09-14T22:42:09.359Z,0.50
2022-09-14T22:44:35.764Z,0.45
2022-09-14T22:47:02.042Z,0.30
2022-09-14T22:49:28.394Z,0.30
2022-09-14T22:51:54.781Z,0.30
2022-09-14T22:54:21.203Z,0.20
2022-09-14T22:56:47.481Z,0.20
2022-09-14T22:59:13.785Z,0.10
2022-09-14T23:01:41.262Z,0.20
2022-09-14T23:04:09.359Z,0.10
2022-09-14T23:06:37.394Z,0.10
2022-09-14T23:09:04.221Z,0.20
2022-09-14T23:11:30.595Z,0.10
2022-09-14T23:13:58.445Z,0.28
2022-09-14T23:16:27.430Z,0.25
2022-09-14T23:18:54.791Z,0.50
2022-09-14T23:21:21.336Z,0.40
2022-09-14T23:23:52.164Z,0.40
2022-09-14T23:26:18.450Z,0.40
2022-09-14T23:28:44.823Z,0.45
2022-09-14T23:31:11.261Z,0.80
2022-09-14T23:33:37.591Z,0.60
2022-09-14T23:36:04.000Z,0.55
2022-09-14T23:38:30.272Z,0.63
2022-09-14T23:40:58.145Z,0.80
2022-09-14T23:43:24.678Z,1.00
2022-09-14T23:45:51.034Z,1.00
2022-09-14T23:48:17.358Z,0.60
2022-09-14T23:50:44.633Z,1.13
2022-09-14T23:53:10.957Z,1.65
2022-09-14T23:55:37.289Z,2.50
2022-09-14T23:58:03.948Z,1.83
